createdAt,value
2018-08-04T00:01:32.552Z,59.36
2018-08-04T00:05:36.091Z,59.88
2018-08-04T00:09:39.621Z,59.21
2018-08-04T00:13:43.151Z,60.20
2018-08-04T00:17:47.838Z,60.35
2018-08-04T00:21:51.325Z,60.34
2018-08-04T00:25:55.120Z,60.28
2018-08-04T00:29:58.695Z,59.81
2018-08-04T00:34:02.150Z,59.95
2018-08-04T00:38:06.038Z,60.36
2018-08-04T00:42:11.634Z,60.54
2018-08-04T00:46:15.339Z,60.00
2018-08-04T00:50:18.849Z,60.45
2018-08-04T00:54:22.327Z,61.09
2018-08-04T00:58:25.849Z,60.17
2018-08-04T01:02:29.334Z,60.83
2018-08-04T01:06:32.768Z,60.97
2018-08-04T01:10:36.374Z,60.33
2018-08-04T01:14:39.867Z,61.11
2018-08-04T01:18:43.395Z,61.02
2018-08-04T01:22:46.937Z,60.77
2018-08-04T01:26:50.454Z,61.32
2018-08-04T01:30:53.982Z,61.23
2018-08-04T01:34:57.469Z,61.04
2018-08-04T01:39:01.002Z,60.78
2018-08-04T01:43:04.490Z,60.08
2018-08-04T01:47:08.005Z,59.86
2018-08-04T01:51:11.470Z,60.51
2018-08-04T01:55:14.951Z,59.85
2018-08-04T01:59:20.147Z,59.87
2018-08-04T02:03:24.856Z,59.09
2018-08-04T02:07:28.579Z,59.50
2018-08-04T02:11:32.146Z,59.77
2018-08-04T02:15:35.859Z,59.67
2018-08-04T02:19:39.531Z,58.23
2018-08-04T02:23:43.082Z,58.38
2018-08-04T02:27:46.596Z,57.54
2018-08-04T02:31:50.123Z,57.45
2018-08-04T02:35:53.689Z,58.01
2018-08-04T02:39:57.209Z,58.11
2018-08-04T02:44:00.703Z,57.90
2018-08-04T02:48:04.194Z,57.12
2018-08-04T02:52:07.708Z,57.21
2018-08-04T02:56:11.244Z,57.97
2018-08-04T03:00:14.730Z,57.45
2018-08-04T03:04:18.208Z,58.31
2018-08-04T03:08:21.722Z,58.04
2018-08-04T03:12:25.180Z,58.91
2018-08-04T03:16:28.652Z,58.72
2018-08-04T03:20:32.144Z,58.35
2018-08-04T03:24:35.689Z,58.20
2018-08-04T03:28:39.100Z,58.84
2018-08-04T03:32:42.641Z,59.49
2018-08-04T03:36:46.109Z,59.61
2018-08-04T03:40:49.632Z,59.00
2018-08-04T03:44:53.091Z,59.44
2018-08-04T03:48:56.599Z,59.91
2018-08-04T03:53:00.163Z,59.62
2018-08-04T03:57:03.703Z,60.25
2018-08-04T04:01:07.198Z,59.58
2018-08-04T04:05:10.671Z,59.11
2018-08-04T04:09:14.107Z,59.86
2018-08-04T04:13:17.707Z,59.13
2018-08-04T04:17:21.217Z,59.43
2018-08-04T04:21:24.814Z,58.58
2018-08-04T04:25:28.290Z,59.38
2018-08-04T04:29:31.795Z,59.67
2018-08-04T04:33:35.250Z,59.36
2018-08-04T04:37:38.733Z,59.37
2018-08-04T04:41:42.223Z,59.75
2018-08-04T04:45:45.746Z,59.21
2018-08-04T04:49:49.287Z,58.27
2018-08-04T04:53:52.766Z,57.73
2018-08-04T04:57:56.235Z,57.83
2018-08-04T05:01:59.809Z,58.33
2018-08-04T05:06:03.576Z,58.07
2018-08-04T05:10:07.412Z,58.87
2018-08-04T05:14:10.835Z,59.28
2018-08-04T05:18:14.324Z,59.05
2018-08-04T05:22:17.835Z,59.48
2018-08-04T05:26:21.341Z,58.96
2018-08-04T05:30:24.849Z,58.98
2018-08-04T05:34:28.373Z,58.76
2018-08-04T05:38:31.877Z,58.93
2018-08-04T05:42:35.494Z,57.38
2018-08-04T05:46:39.027Z,57.04
2018-08-04T05:50:42.598Z,57.58
2018-08-04T05:54:46.156Z,55.98
2018-08-04T05:58:49.659Z,55.60
2018-08-04T06:02:53.149Z,54.87
2018-08-04T06:06:56.646Z,54.08
2018-08-04T06:11:00.430Z,53.98
2018-08-04T06:15:03.967Z,53.50
2018-08-04T06:19:07.451Z,51.77
2018-08-04T06:23:10.926Z,51.53
2018-08-04T06:27:14.480Z,51.72
2018-08-04T06:31:18.012Z,50.87
2018-08-04T06:35:21.501Z,50.78
2018-08-04T06:39:24.992Z,50.94
2018-08-04T06:43:28.532Z,50.33
2018-08-04T06:47:32.076Z,49.06
2018-08-04T06:51:35.601Z,48.67
2018-08-04T06:55:39.125Z,49.25
2018-08-04T06:59:42.646Z,48.22
2018-08-04T07:03:46.185Z,48.69
2018-08-04T07:07:49.728Z,49.27
2018-08-04T07:11:53.336Z,48.88
2018-08-04T07:15:56.903Z,48.42
2018-08-04T07:20:00.421Z,48.12
2018-08-04T07:24:04.045Z,48.37
2018-08-04T07:28:07.550Z,49.26
2018-08-04T07:32:11.055Z,49.07
2018-08-04T07:36:14.598Z,48.17
2018-08-04T07:40:18.093Z,47.86
2018-08-04T07:44:22.463Z,47.91
2018-08-04T07:48:26.005Z,47.44
2018-08-04T07:52:29.772Z,48.14
2018-08-04T07:56:33.386Z,48.20
2018-08-04T08:00:36.927Z,48.47
2018-08-04T08:04:41.252Z,48.32
2018-08-04T08:08:45.130Z,48.46
2018-08-04T08:12:49.113Z,47.80
2018-08-04T08:16:52.798Z,48.53
2018-08-04T08:20:56.689Z,48.45
2018-08-04T08:25:00.676Z,48.00
2018-08-04T08:29:04.575Z,48.05
2018-08-04T08:33:08.399Z,48.09
2018-08-04T08:37:12.315Z,47.38
2018-08-04T08:41:16.097Z,47.61
2018-08-04T08:45:20.105Z,47.22
2018-08-04T08:49:24.020Z,47.22
2018-08-04T08:53:27.721Z,46.46
2018-08-04T08:57:31.247Z,46.78
2018-08-04T09:01:34.867Z,45.49
2018-08-04T09:05:38.367Z,45.61
2018-08-04T09:09:41.877Z,46.29
2018-08-04T09:13:45.546Z,44.84
2018-08-04T09:17:49.120Z,43.95
2018-08-04T09:21:52.854Z,44.05
2018-08-04T09:25:56.468Z,44.49
2018-08-04T09:29:59.982Z,44.01
2018-08-04T09:34:03.510Z,44.03
2018-08-04T09:38:07.091Z,43.84
2018-08-04T09:42:10.801Z,43.57
2018-08-04T09:46:14.330Z,43.40
2018-08-04T09:50:17.871Z,42.88
2018-08-04T09:54:21.633Z,43.30
2018-08-04T09:58:25.342Z,43.60
2018-08-04T10:02:29.013Z,42.19
2018-08-04T10:06:32.503Z,41.85
2018-08-04T10:10:36.065Z,43.06
2018-08-04T10:14:39.451Z,42.11
2018-08-04T10:18:42.991Z,42.75
2018-08-04T10:22:46.392Z,42.95
2018-08-04T10:26:49.819Z,43.52
2018-08-04T10:30:53.235Z,41.83
2018-08-04T10:34:56.629Z,40.14
2018-08-04T10:39:00.079Z,39.90
2018-08-04T10:43:03.532Z,41.66
2018-08-04T10:47:07.032Z,39.91
2018-08-04T10:51:10.468Z,40.15
2018-08-04T10:55:13.953Z,38.98
2018-08-04T10:59:17.373Z,37.84
2018-08-04T11:03:20.807Z,35.42
2018-08-04T11:07:24.301Z,37.92
2018-08-04T11:11:27.877Z,38.55
2018-08-04T11:15:31.333Z,39.35
2018-08-04T11:19:34.860Z,39.23
2018-08-04T11:23:38.287Z,38.00
2018-08-04T11:27:41.718Z,39.51
2018-08-04T11:31:45.186Z,38.29
2018-08-04T11:35:48.619Z,37.56
2018-08-04T11:39:51.988Z,36.86
2018-08-04T11:43:55.403Z,36.02
2018-08-04T11:47:58.815Z,35.48
2018-08-04T11:52:02.291Z,35.62
2018-08-04T11:56:05.920Z,34.83
2018-08-04T12:00:09.380Z,32.24
2018-08-04T12:04:12.959Z,34.15
2018-08-04T12:08:16.630Z,33.03
2018-08-04T12:12:20.138Z,33.46
2018-08-04T12:16:23.628Z,33.87
2018-08-04T12:20:27.053Z,32.30
2018-08-04T12:24:30.634Z,33.41
2018-08-04T12:28:34.134Z,33.69
2018-08-04T12:32:37.974Z,32.50
2018-08-04T12:36:41.463Z,33.29
2018-08-04T12:40:45.174Z,31.11
2018-08-04T12:44:48.612Z,31.78
2018-08-04T12:48:52.143Z,31.26
2018-08-04T12:52:55.628Z,31.57
2018-08-04T12:56:59.077Z,31.35
2018-08-04T13:01:02.542Z,32.41
2018-08-04T13:05:06.460Z,30.60
2018-08-04T13:09:10.973Z,31.07
2018-08-04T13:13:14.480Z,30.74
2018-08-04T13:17:17.894Z,28.85
2018-08-04T13:21:21.443Z,27.50
2018-08-04T13:25:25.029Z,28.52
2018-08-04T13:29:28.595Z,28.76
2018-08-04T13:33:32.036Z,30.20
2018-08-04T13:37:35.635Z,28.65
2018-08-04T13:41:40.049Z,28.58
2018-08-04T13:45:43.559Z,28.37
2018-08-04T13:49:46.986Z,28.49
2018-08-04T13:53:50.428Z,28.47
2018-08-04T13:57:53.956Z,28.28
2018-08-04T14:01:57.405Z,27.11
2018-08-04T14:06:00.995Z,27.81
2018-08-04T14:10:04.425Z,29.05
2018-08-04T14:14:08.008Z,29.22
2018-08-04T14:18:11.514Z,28.73
2018-08-04T14:22:14.979Z,27.66
2018-08-04T14:26:18.509Z,28.32
2018-08-04T14:30:22.042Z,27.65
2018-08-04T14:34:25.479Z,28.62
2018-08-04T14:38:28.901Z,27.54
2018-08-04T14:42:32.411Z,29.84
2018-08-04T14:46:36.056Z,29.09
2018-08-04T14:50:39.547Z,27.46
2018-08-04T14:54:43.011Z,28.79
2018-08-04T14:58:46.448Z,28.16
2018-08-04T15:02:49.899Z,27.78
2018-08-04T15:06:53.348Z,27.77
2018-08-04T15:10:56.801Z,29.16
2018-08-04T15:15:00.257Z,28.65
2018-08-04T15:19:04.136Z,27.97
2018-08-04T15:23:07.555Z,28.62
2018-08-04T15:27:11.040Z,29.31
2018-08-04T15:31:14.514Z,29.63
2018-08-04T15:35:17.964Z,28.92
2018-08-04T15:39:21.415Z,28.88
2018-08-04T15:43:24.894Z,29.87
2018-08-04T15:47:28.325Z,29.96
2018-08-04T15:51:31.798Z,29.23
2018-08-04T15:55:35.231Z,29.14
2018-08-04T15:59:38.615Z,29.66
2018-08-04T16:03:42.037Z,29.37
2018-08-04T16:07:45.473Z,28.79
2018-08-04T16:11:48.881Z,30.25
2018-08-04T16:15:52.353Z,30.55
2018-08-04T16:19:55.761Z,29.69
2018-08-04T16:23:59.199Z,30.13
2018-08-04T16:28:02.680Z,30.81
2018-08-04T16:32:06.127Z,30.41
2018-08-04T16:36:09.496Z,30.51
2018-08-04T16:40:12.925Z,31.17
2018-08-04T16:44:16.405Z,30.96
2018-08-04T16:48:19.898Z,30.53
2018-08-04T16:52:23.268Z,31.51
2018-08-04T16:56:26.697Z,31.61
2018-08-04T17:00:30.132Z,32.44
2018-08-04T17:04:33.807Z,31.16
2018-08-04T17:08:37.212Z,31.64
2018-08-04T17:12:40.647Z,32.91
2018-08-04T17:16:44.109Z,32.39
2018-08-04T17:20:47.533Z,32.07
2018-08-04T17:24:50.992Z,31.95
2018-08-04T17:28:54.604Z,33.19
2018-08-04T17:32:58.183Z,33.58
2018-08-04T17:37:01.626Z,34.00
2018-08-04T17:41:05.049Z,34.59
2018-08-04T17:45:08.444Z,34.35
2018-08-04T17:49:11.852Z,34.71
2018-08-04T17:53:15.271Z,35.01
2018-08-04T17:57:18.719Z,35.18
2018-08-04T18:01:22.120Z,34.80
2018-08-04T18:05:25.533Z,35.10
2018-08-04T18:09:29.025Z,35.89
2018-08-04T18:13:32.426Z,35.74
2018-08-04T18:17:36.008Z,35.88
2018-08-04T18:21:39.477Z,35.87
2018-08-04T18:25:42.923Z,36.42
2018-08-04T18:29:46.561Z,36.25
2018-08-04T18:33:49.998Z,36.42
2018-08-04T18:37:53.563Z,36.47
2018-08-04T18:41:57.031Z,37.40
2018-08-04T18:46:00.625Z,37.59
2018-08-04T18:50:04.182Z,36.47
2018-08-04T18:54:07.926Z,36.90
2018-08-04T18:58:11.847Z,37.61
2018-08-04T19:02:15.727Z,38.94
2018-08-04T19:06:19.515Z,37.99
2018-08-04T19:10:23.332Z,38.93
2018-08-04T19:14:26.766Z,38.88
2018-08-04T19:18:30.301Z,38.39
2018-08-04T19:22:34.317Z,37.98
2018-08-04T19:26:38.066Z,37.99
2018-08-04T19:30:41.746Z,38.98
2018-08-04T19:34:46.205Z,38.32
2018-08-04T19:38:49.911Z,39.37
2018-08-04T19:42:53.588Z,39.05
2018-08-04T19:46:57.276Z,39.06
2018-08-04T19:51:00.966Z,40.32
2018-08-04T19:55:04.735Z,39.96
2018-08-04T19:59:08.479Z,41.16
2018-08-04T20:03:12.172Z,41.36
2018-08-04T20:07:15.944Z,41.25
2018-08-04T20:11:19.664Z,41.93
2018-08-04T20:15:23.410Z,41.77
2018-08-04T20:19:27.132Z,42.33
2018-08-04T20:23:30.896Z,42.65
2018-08-04T20:27:34.618Z,42.93
2018-08-04T20:31:38.451Z,42.90
2018-08-04T20:35:42.190Z,42.56
2018-08-04T20:39:45.988Z,43.64
2018-08-04T20:43:49.742Z,42.67
2018-08-04T20:47:53.703Z,44.16
2018-08-04T20:51:57.463Z,43.90
2018-08-04T20:56:01.476Z,43.32
2018-08-04T21:00:05.839Z,43.47
2018-08-04T21:04:09.685Z,43.64
2018-08-04T21:08:13.635Z,43.20
2018-08-04T21:12:17.702Z,44.73
2018-08-04T21:16:21.400Z,44.19
2018-08-04T21:20:24.917Z,44.19
2018-08-04T21:24:28.389Z,44.91
2018-08-04T21:28:31.881Z,45.04
2018-08-04T21:32:35.405Z,44.62
2018-08-04T21:36:38.919Z,44.65
2018-08-04T21:40:42.431Z,44.69
2018-08-04T21:44:45.914Z,43.69
2018-08-04T21:48:49.511Z,44.44
2018-08-04T21:52:53.083Z,44.51
2018-08-04T21:56:56.612Z,44.02
2018-08-04T22:01:05.264Z,44.61
2018-08-04T22:05:08.755Z,44.42
2018-08-04T22:09:18.963Z,44.42
2018-08-04T22:13:22.447Z,43.53
2018-08-04T22:17:25.916Z,43.59
2018-08-04T22:21:29.432Z,43.97
2018-08-04T22:25:32.920Z,44.21
2018-08-04T22:29:36.395Z,43.67
2018-08-04T22:33:39.894Z,44.77
2018-08-04T22:37:43.502Z,44.18
2018-08-04T22:41:47.016Z,44.61
2018-08-04T22:46:15.276Z,44.74
2018-08-04T22:50:18.791Z,44.66
2018-08-04T22:54:22.245Z,45.01
2018-08-04T22:58:25.814Z,45.44
2018-08-04T23:02:29.369Z,44.98
2018-08-04T23:06:32.877Z,45.39
2018-08-04T23:10:40.976Z,45.31
2018-08-04T23:14:44.534Z,45.74
2018-08-04T23:18:48.011Z,45.25
2018-08-04T23:22:51.532Z,46.09
2018-08-04T23:26:55.095Z,45.91
2018-08-04T23:30:58.593Z,46.33
2018-08-04T23:35:02.169Z,47.55
2018-08-04T23:39:07.532Z,47.33
2018-08-04T23:43:10.994Z,47.30
2018-08-04T23:47:14.498Z,48.11
2018-08-04T23:51:17.979Z,48.11
2018-08-04T23:55:21.443Z,47.79
2018-08-04T23:59:24.974Z,47.98
